Stena Germanica — SKPZ — position and weather

sailwx.info

Track history (hours):
 
Tides and Currents Weather Stations Pressure Air Temp Water Temp Dewpoint Dewpoint Depression Visibility Wind Speed Wind Dir Waves Ship Positions

Stena Germanica

Last reported at 2017-Feb-21 07:31 UTC. Time now 2017-Feb-21 08:00 UTC.
Position N 56°10' E 015°38'.

Length 176 m; draft 6.8 m.

Type: Passenger vessel. MMSI: 265292000.

Date/timePositionNaut miles runAvg speedWind from/ knotsBaromVisibWave heightAir tempDewpointWater temp
2017-Feb-21 07:31N 56°10' E 015°38'0 0.0
2017-Feb-21 06:31N 56°10' E 015°38'2 1.7
2017-Feb-21 05:33N 56°09' E 015°36'1212.0
2017-Feb-21 04:33N 55°59' E 015°49'1414.2
2017-Feb-21 03:34N 55°52' E 016°11'1514.7
2017-Feb-21 02:34N 55°42' E 016°31'7414.3
2017-Feb-20 21:23N 55°02' E 018°20'1113.7
2017-Feb-20 20:34N 54°56' E 018°36'1615.9
2017-Feb-20 19:33N 54°43' E 018°54'1413.5
2017-Feb-20 18:34N 54°32' E 018°42'7 6.8
2017-Feb-20 17:31N 54°33' E 018°30'0 0.0
2017-Feb-20 16:31N 54°33' E 018°30'0 0.0
2017-Feb-20 15:31N 54°33' E 018°30'0 0.0
2017-Feb-20 14:31N 54°33' E 018°30'0 0.0
2017-Feb-20 13:31N 54°33' E 018°30'0 0.0
2017-Feb-20 12:31N 54°33' E 018°30'0 0.0
2017-Feb-20 11:31N 54°33' E 018°30'0 0.0
2017-Feb-20 10:31N 54°33' E 018°30'0 0.0
2017-Feb-20 09:28N 54°33' E 018°30'0 0.0
2017-Feb-20 08:31N 54°33' E 018°30'1 1.4
2017-Feb-20 07:34N 54°32' E 018°32'1212.2
2017-Feb-20 06:33N 54°35' E 018°53'1212.3
2017-Feb-20 05:34N 54°48' E 018°48'1514.5
2017-Feb-20 04:34N 54°58' E 018°32'1414.3
2017-Feb-20 03:33N 55°06' E 018°11'6015.0
2017-Feb-19 23:33N 55°38' E 016°41'1515.3
2017-Feb-19 22:33N 55°46' E 016°18'1514.8
2017-Feb-19 21:33N 55°56' E 015°58'1515.0
2017-Feb-19 20:33N 56°03' E 015°35'7 6.6
2017-Feb-19 19:32N 56°10' E 015°38'2 2.5
2017-Feb-19 18:33N 56°08' E 015°36'1413.8
2017-Feb-19 17:33N 55°59' E 015°54'1414.2
2017-Feb-19 16:33N 55°50' E 016°15'1515.4
2017-Feb-19 15:33N 55°41' E 016°36'6816.2
2017-Feb-19 11:21N 55°04' E 018°17'1316.9
2017-Feb-19 10:33N 54°56' E 018°36'1717.1
2017-Feb-19 09:33N 54°43' E 018°55'1313.3
2017-Feb-19 08:33N 54°32' E 018°43'7 7.1
2017-Feb-19 07:32N 54°33' E 018°30'0 0.0
2017-Feb-19 06:33N 54°33' E 018°30'7 7.2
2017-Feb-19 05:34N 54°32' E 018°43'1211.7
2017-Feb-19 04:33N 54°42' E 018°55'1514.8
2017-Feb-19 03:33N 54°53' E 018°38'1615.8
2017-Feb-19 02:33N 55°03' E 018°17'6516.2
2017-Feb-18 22:33N 55°39' E 016°42'1616.3
2017-Feb-18 21:33N 55°48' E 016°17'1616.1
2017-Feb-18 20:33N 55°57' E 015°53'1414.3
2017-Feb-18 19:34N 56°06' E 015°35'4 3.8
2017-Feb-18 18:31N 56°10' E 015°38'0 0.1
2017-Feb-18 17:33N 56°10' E 015°38'1211.6
2017-Feb-18 16:34N 55°59' E 015°46'1716.9
2017-Feb-18 15:34N 55°51' E 016°13'1716.9
2017-Feb-18 14:34N 55°42' E 016°38'1716.6
2017-Feb-18 13:34N 55°32' E 017°01'2117.3
2017-Feb-18 12:21N 55°20' E 017°32'1617.5
2017-Feb-18 11:27N 55°12' E 017°56'1617.5
2017-Feb-18 10:31N 55°03' E 018°19'1617.2
2017-Feb-18 09:34N 54°52' E 018°40'1616.4
2017-Feb-18 08:34N 54°38' E 018°56'1413.8
2017-Feb-18 07:33N 54°32' E 018°35'3 2.6
2017-Feb-18 06:31N 54°33' E 018°30'2 1.7
2017-Feb-18 05:33N 54°32' E 018°33'1211.8
2017-Feb-18 04:33N 54°35' E 018°52'1312.6
2017-Feb-18 03:33N 54°48' E 018°47'1514.7
2017-Feb-18 02:33N 54°59' E 018°31'1615.7
2017-Feb-18 01:33N 55°08' E 018°08'6115.1
2017-Feb-17 21:32N 55°41' E 016°39'1515.0
2017-Feb-17 20:33N 55°48' E 016°17'1514.8
2017-Feb-17 19:33N 55°56' E 015°54'1414.2
2017-Feb-17 18:33N 56°05' E 015°34'5 5.4
2017-Feb-17 17:33N 56°10' E 015°38'0 0.0
2017-Feb-17 16:33N 56°10' E 015°38'0 0.0
2017-Feb-17 15:33N 56°10' E 015°38'0 0.0
2017-Feb-17 14:33N 56°10' E 015°38'0 0.0
2017-Feb-17 13:33N 56°10' E 015°38'0 0.0
2017-Feb-17 12:33N 56°10' E 015°38'0 0.0
2017-Feb-17 11:33N 56°10' E 015°38'0 0.0
2017-Feb-17 10:33N 56°10' E 015°38'0 0.0
2017-Feb-17 09:33N 56°10' E 015°38'0 0.0
2017-Feb-17 08:33N 56°10' E 015°38'10412.4
2017-Feb-17 00:06N 55°08' E 018°07'814.2
2017-Feb-16 23:33N 55°04' E 018°18'1414.4
2017-Feb-16 22:33N 54°55' E 018°38'1413.7
2017-Feb-16 21:34N 54°44' E 018°53'1212.2
2017-Feb-16 20:33N 54°32' E 018°49'1110.8
2017-Feb-16 19:33N 54°33' E 018°30'0 0.0
2017-Feb-16 18:33N 54°33' E 018°30'7 6.7
2017-Feb-16 17:33N 54°32' E 018°42'1211.9
2017-Feb-16 16:33N 54°42' E 018°55'1414.1
2017-Feb-16 15:33N 54°51' E 018°37'1414.3
2017-Feb-16 14:34N 55°01' E 018°19'1717.2
2017-Feb-16 13:33N 55°10' E 017°53'1716.4
2017-Feb-16 12:31N 55°22' E 017°31'1816.8
2017-Feb-16 11:27N 55°30' E 017°03'3217.0
2017-Feb-16 09:33N 55°47' E 016°15'2417.0
2017-Feb-16 08:09N 56°01' E 015°41'813.0
2017-Feb-16 07:34N 56°09' E 015°36'1 1.2
2017-Feb-16 06:20N 56°10' E 015°38'3311.7
2017-Feb-16 03:31N 55°47' E 016°21'3616.6
2017-Feb-16 01:22N 55°27' E 017°13'1417.6
2017-Feb-16 00:33N 55°19' E 017°34'1717.5
2017-Feb-15 23:33N 55°10' E 018°00'1717.0
2017-Feb-15 22:34N 55°01' E 018°25'1716.9
2017-Feb-15 21:34N 54°49' E 018°46'1514.8
2017-Feb-15 20:34N 54°35' E 018°53'1212.2
2017-Feb-15 19:33N 54°32' E 018°32'1 1.0
2017-Feb-15 18:30N 54°33' E 018°30'2 1.8
2017-Feb-15 17:33N 54°32' E 018°33'1414.2
2017-Feb-15 16:34N 54°38' E 018°55'1515.2
2017-Feb-15 15:34N 54°50' E 018°38'1716.6
2017-Feb-15 14:34N 54°59' E 018°14'1916.9
2017-Feb-15 13:25N 55°10' E 017°46'3116.5
2017-Feb-15 11:33N 55°30' E 017°06'3916.7
2017-Feb-15 09:13N 55°51' E 016°07'1116.4
2017-Feb-15 08:33N 55°57' E 015°51'1413.8
2017-Feb-15 07:33N 56°08' E 015°36'2 2.0
2017-Feb-15 06:31N 56°10' E 015°38'4 4.2
2017-Feb-15 05:33N 56°06' E 015°35'2014.6
2017-Feb-15 04:12N 55°54' E 016°02'4816.8
2017-Feb-15 01:19N 55°28' E 017°15'1418.0
2017-Feb-15 00:33N 55°21' E 017°35'1818.0
2017-Feb-14 23:33N 55°10' E 018°01'1717.3
2017-Feb-14 22:33N 55°01' E 018°26'1717.0
2017-Feb-14 21:33N 54°49' E 018°47'1514.7
2017-Feb-14 20:33N 54°34' E 018°52'1212.3
2017-Feb-14 19:33N 54°32' E 018°31'1 0.5
2017-Feb-14 18:31N 54°33' E 018°30'1 1.2
2017-Feb-14 17:33N 54°32' E 018°32'1413.8
2017-Feb-14 16:33N 54°38' E 018°54'1616.3
2017-Feb-14 15:33N 54°51' E 018°38'1818.5
2017-Feb-14 14:33N 55°01' E 018°11'1918.3
2017-Feb-14 13:32N 55°13' E 017°45'1716.9
2017-Feb-14 12:33N 55°23' E 017°22'6217.8
2017-Feb-14 09:03N 55°58' E 015°51'917.0
2017-Feb-14 08:33N 56°03' E 015°38'7 7.3
2017-Feb-14 07:33N 56°10' E 015°38'0 0.0
2017-Feb-14 06:33N 56°10' E 015°38'4 3.7
2017-Feb-14 05:33N 56°07' E 015°35'1913.1
2017-Feb-14 04:08N 55°55' E 016°00'814.0
2017-Feb-14 03:33N 55°50' E 016°13'3114.3
2017-Feb-14 01:24N 55°33' E 016°58'1814.4
2017-Feb-14 00:10N 55°23' E 017°24'914.6
2017-Feb-13 23:33N 55°18' E 017°37'1515.0
2017-Feb-13 22:33N 55°10' E 017°59'1514.4
2017-Feb-13 21:31N 55°03' E 018°22'1313.9
2017-Feb-13 20:34N 54°54' E 018°39'1514.5
2017-Feb-13 19:34N 54°43' E 018°55'1312.6
2017-Feb-13 18:33N 54°32' E 018°45'8 8.3
2017-Feb-13 17:33N 54°33' E 018°30'0 0.0
2017-Feb-13 16:33N 54°33' E 018°30'0 0.0
2017-Feb-13 15:33N 54°33' E 018°30'0 0.0
2017-Feb-13 14:33N 54°33' E 018°30'0 0.0
2017-Feb-13 13:33N 54°33' E 018°30'0 0.0
2017-Feb-13 12:33N 54°33' E 018°30'0 0.0
2017-Feb-13 11:33N 54°33' E 018°30'0 0.0
2017-Feb-13 10:33N 54°33' E 018°30'0 0.0
2017-Feb-13 09:33N 54°33' E 018°30'0 0.0
2017-Feb-13 08:33N 54°33' E 018°30'1 1.0
2017-Feb-13 07:33N 54°32' E 018°32'1312.5
2017-Feb-13 06:34N 54°36' E 018°53'1312.8
2017-Feb-13 05:33N 54°48' E 018°46'1414.4
2017-Feb-13 04:33N 54°58' E 018°29'1514.8
2017-Feb-13 03:34N 55°06' E 018°07'1514.9
2017-Feb-13 02:34N 55°15' E 017°46'9014.9
2017-Feb-12 20:34N 56°05' E 015°34'6 5.7
2017-Feb-12 19:33N 56°10' E 015°38'4 4.0
2017-Feb-12 18:34N 56°06' E 015°35'9215.0
2017-Feb-12 12:26N 55°15' E 017°49'1415.5
2017-Feb-12 11:33N 55°07' E 018°09'1515.7
2017-Feb-12 10:34N 54°58' E 018°31'1817.9
2017-Feb-12 09:34N 54°45' E 018°53'1414.0
2017-Feb-12 08:34N 54°32' E 018°45'9 8.6
2017-Feb-12 07:32N 54°33' E 018°30'0 0.0
2017-Feb-12 06:32N 54°33' E 018°30'6 5.7
2017-Feb-12 05:34N 54°32' E 018°40'1312.9
2017-Feb-12 04:34N 54°42' E 018°55'1514.6
2017-Feb-12 03:34N 54°53' E 018°39'1815.0
2017-Feb-12 02:22N 55°04' E 018°15'1316.0
2017-Feb-12 01:33N 55°12' E 017°56'9315.5
2017-Feb-11 19:33N 56°03' E 015°38'7 7.2
2017-Feb-11 18:32N 56°10' E 015°38'0 0.0
2017-Feb-11 17:33N 56°10' E 015°38'10815.4
2017-Feb-11 10:34N 55°06' E 018°11'1817.8
2017-Feb-11 09:34N 54°55' E 018°36'1918.8
2017-Feb-11 08:34N 54°41' E 018°57'1414.2
2017-Feb-11 07:33N 54°32' E 018°38'  
Track history (hours):
 
Tides and Currents Weather Stations Pressure Air Temp Water Temp Dewpoint Dewpoint Depression Visibility Wind Speed Wind Dir Waves Ship Positions

Stena Germanica

Last reported at 2017-Feb-21 07:31 UTC. Time now 2017-Feb-21 08:00 UTC.
Position N 56°10' E 015°38'.

Length 176 m; draft 6.8 m.

Type: Passenger vessel. MMSI: 265292000.

Date/timePositionNaut miles runAvg speedWind from/ knotsBaromVisibWave heightAir tempDewpointWater temp
2017-Feb-21 07:31N 56°10' E 015°38'0 0.0
2017-Feb-21 06:31N 56°10' E 015°38'2 1.7
2017-Feb-21 05:33N 56°09' E 015°36'1212.0
2017-Feb-21 04:33N 55°59' E 015°49'1414.2
2017-Feb-21 03:34N 55°52' E 016°11'1514.7
2017-Feb-21 02:34N 55°42' E 016°31'7414.3
2017-Feb-20 21:23N 55°02' E 018°20'1113.7
2017-Feb-20 20:34N 54°56' E 018°36'1615.9
2017-Feb-20 19:33N 54°43' E 018°54'1413.5
2017-Feb-20 18:34N 54°32' E 018°42'7 6.8
2017-Feb-20 17:31N 54°33' E 018°30'0 0.0
2017-Feb-20 16:31N 54°33' E 018°30'0 0.0
2017-Feb-20 15:31N 54°33' E 018°30'0 0.0
2017-Feb-20 14:31N 54°33' E 018°30'0 0.0
2017-Feb-20 13:31N 54°33' E 018°30'0 0.0
2017-Feb-20 12:31N 54°33' E 018°30'0 0.0
2017-Feb-20 11:31N 54°33' E 018°30'0 0.0
2017-Feb-20 10:31N 54°33' E 018°30'0 0.0
2017-Feb-20 09:28N 54°33' E 018°30'0 0.0
2017-Feb-20 08:31N 54°33' E 018°30'1 1.4
2017-Feb-20 07:34N 54°32' E 018°32'1212.2
2017-Feb-20 06:33N 54°35' E 018°53'1212.3
2017-Feb-20 05:34N 54°48' E 018°48'1514.5
2017-Feb-20 04:34N 54°58' E 018°32'1414.3
2017-Feb-20 03:33N 55°06' E 018°11'6015.0
2017-Feb-19 23:33N 55°38' E 016°41'1515.3
2017-Feb-19 22:33N 55°46' E 016°18'1514.8
2017-Feb-19 21:33N 55°56' E 015°58'1515.0
2017-Feb-19 20:33N 56°03' E 015°35'7 6.6
2017-Feb-19 19:32N 56°10' E 015°38'2 2.5
2017-Feb-19 18:33N 56°08' E 015°36'1413.8
2017-Feb-19 17:33N 55°59' E 015°54'1414.2
2017-Feb-19 16:33N 55°50' E 016°15'1515.4
2017-Feb-19 15:33N 55°41' E 016°36'6816.2
2017-Feb-19 11:21N 55°04' E 018°17'1316.9
2017-Feb-19 10:33N 54°56' E 018°36'1717.1
2017-Feb-19 09:33N 54°43' E 018°55'1313.3
2017-Feb-19 08:33N 54°32' E 018°43'7 7.1
2017-Feb-19 07:32N 54°33' E 018°30'0 0.0
2017-Feb-19 06:33N 54°33' E 018°30'7 7.2
2017-Feb-19 05:34N 54°32' E 018°43'1211.7
2017-Feb-19 04:33N 54°42' E 018°55'1514.8
2017-Feb-19 03:33N 54°53' E 018°38'1615.8
2017-Feb-19 02:33N 55°03' E 018°17'6516.2
2017-Feb-18 22:33N 55°39' E 016°42'1616.3
2017-Feb-18 21:33N 55°48' E 016°17'1616.1
2017-Feb-18 20:33N 55°57' E 015°53'1414.3
2017-Feb-18 19:34N 56°06' E 015°35'4 3.8
2017-Feb-18 18:31N 56°10' E 015°38'0 0.1
2017-Feb-18 17:33N 56°10' E 015°38'1211.6
2017-Feb-18 16:34N 55°59' E 015°46'1716.9
2017-Feb-18 15:34N 55°51' E 016°13'1716.9
2017-Feb-18 14:34N 55°42' E 016°38'1716.6
2017-Feb-18 13:34N 55°32' E 017°01'2117.3
2017-Feb-18 12:21N 55°20' E 017°32'1617.5
2017-Feb-18 11:27N 55°12' E 017°56'1617.5
2017-Feb-18 10:31N 55°03' E 018°19'1617.2
2017-Feb-18 09:34N 54°52' E 018°40'1616.4
2017-Feb-18 08:34N 54°38' E 018°56'1413.8
2017-Feb-18 07:33N 54°32' E 018°35'3 2.6
2017-Feb-18 06:31N 54°33' E 018°30'2 1.7
2017-Feb-18 05:33N 54°32' E 018°33'1211.8
2017-Feb-18 04:33N 54°35' E 018°52'1312.6
2017-Feb-18 03:33N 54°48' E 018°47'1514.7
2017-Feb-18 02:33N 54°59' E 018°31'1615.7
2017-Feb-18 01:33N 55°08' E 018°08'6115.1
2017-Feb-17 21:32N 55°41' E 016°39'1515.0
2017-Feb-17 20:33N 55°48' E 016°17'1514.8
2017-Feb-17 19:33N 55°56' E 015°54'1414.2
2017-Feb-17 18:33N 56°05' E 015°34'5 5.4
2017-Feb-17 17:33N 56°10' E 015°38'0 0.0
2017-Feb-17 16:33N 56°10' E 015°38'0 0.0
2017-Feb-17 15:33N 56°10' E 015°38'0 0.0
2017-Feb-17 14:33N 56°10' E 015°38'0 0.0
2017-Feb-17 13:33N 56°10' E 015°38'0 0.0
2017-Feb-17 12:33N 56°10' E 015°38'0 0.0
2017-Feb-17 11:33N 56°10' E 015°38'0 0.0
2017-Feb-17 10:33N 56°10' E 015°38'0 0.0
2017-Feb-17 09:33N 56°10' E 015°38'0 0.0
2017-Feb-17 08:33N 56°10' E 015°38'10412.4
2017-Feb-17 00:06N 55°08' E 018°07'814.2
2017-Feb-16 23:33N 55°04' E 018°18'1414.4
2017-Feb-16 22:33N 54°55' E 018°38'1413.7
2017-Feb-16 21:34N 54°44' E 018°53'1212.2
2017-Feb-16 20:33N 54°32' E 018°49'1110.8
2017-Feb-16 19:33N 54°33' E 018°30'0 0.0
2017-Feb-16 18:33N 54°33' E 018°30'7 6.7
2017-Feb-16 17:33N 54°32' E 018°42'1211.9
2017-Feb-16 16:33N 54°42' E 018°55'1414.1
2017-Feb-16 15:33N 54°51' E 018°37'1414.3
2017-Feb-16 14:34N 55°01' E 018°19'1717.2
2017-Feb-16 13:33N 55°10' E 017°53'1716.4
2017-Feb-16 12:31N 55°22' E 017°31'1816.8
2017-Feb-16 11:27N 55°30' E 017°03'3217.0
2017-Feb-16 09:33N 55°47' E 016°15'2417.0
2017-Feb-16 08:09N 56°01' E 015°41'813.0
2017-Feb-16 07:34N 56°09' E 015°36'1 1.2
2017-Feb-16 06:20N 56°10' E 015°38'3311.7
2017-Feb-16 03:31N 55°47' E 016°21'3616.6
2017-Feb-16 01:22N 55°27' E 017°13'1417.6
2017-Feb-16 00:33N 55°19' E 017°34'1717.5
2017-Feb-15 23:33N 55°10' E 018°00'1717.0
2017-Feb-15 22:34N 55°01' E 018°25'1716.9
2017-Feb-15 21:34N 54°49' E 018°46'1514.8
2017-Feb-15 20:34N 54°35' E 018°53'1212.2
2017-Feb-15 19:33N 54°32' E 018°32'1 1.0
2017-Feb-15 18:30N 54°33' E 018°30'2 1.8
2017-Feb-15 17:33N 54°32' E 018°33'1414.2
2017-Feb-15 16:34N 54°38' E 018°55'1515.2
2017-Feb-15 15:34N 54°50' E 018°38'1716.6
2017-Feb-15 14:34N 54°59' E 018°14'1916.9
2017-Feb-15 13:25N 55°10' E 017°46'3116.5
2017-Feb-15 11:33N 55°30' E 017°06'3916.7
2017-Feb-15 09:13N 55°51' E 016°07'1116.4
2017-Feb-15 08:33N 55°57' E 015°51'1413.8
2017-Feb-15 07:33N 56°08' E 015°36'2 2.0
2017-Feb-15 06:31N 56°10' E 015°38'4 4.2
2017-Feb-15 05:33N 56°06' E 015°35'2014.6
2017-Feb-15 04:12N 55°54' E 016°02'4816.8
2017-Feb-15 01:19N 55°28' E 017°15'1418.0
2017-Feb-15 00:33N 55°21' E 017°35'1818.0
2017-Feb-14 23:33N 55°10' E 018°01'1717.3
2017-Feb-14 22:33N 55°01' E 018°26'1717.0
2017-Feb-14 21:33N 54°49' E 018°47'1514.7
2017-Feb-14 20:33N 54°34' E 018°52'1212.3
2017-Feb-14 19:33N 54°32' E 018°31'1 0.5
2017-Feb-14 18:31N 54°33' E 018°30'1 1.2
2017-Feb-14 17:33N 54°32' E 018°32'1413.8
2017-Feb-14 16:33N 54°38' E 018°54'1616.3
2017-Feb-14 15:33N 54°51' E 018°38'1818.5
2017-Feb-14 14:33N 55°01' E 018°11'1918.3
2017-Feb-14 13:32N 55°13' E 017°45'1716.9
2017-Feb-14 12:33N 55°23' E 017°22'6217.8
2017-Feb-14 09:03N 55°58' E 015°51'917.0
2017-Feb-14 08:33N 56°03' E 015°38'7 7.3
2017-Feb-14 07:33N 56°10' E 015°38'0 0.0
2017-Feb-14 06:33N 56°10' E 015°38'4 3.7
2017-Feb-14 05:33N 56°07' E 015°35'1913.1
2017-Feb-14 04:08N 55°55' E 016°00'814.0
2017-Feb-14 03:33N 55°50' E 016°13'3114.3
2017-Feb-14 01:24N 55°33' E 016°58'1814.4
2017-Feb-14 00:10N 55°23' E 017°24'914.6
2017-Feb-13 23:33N 55°18' E 017°37'1515.0
2017-Feb-13 22:33N 55°10' E 017°59'1514.4
2017-Feb-13 21:31N 55°03' E 018°22'1313.9
2017-Feb-13 20:34N 54°54' E 018°39'1514.5
2017-Feb-13 19:34N 54°43' E 018°55'1312.6
2017-Feb-13 18:33N 54°32' E 018°45'8 8.3
2017-Feb-13 17:33N 54°33' E 018°30'0 0.0
2017-Feb-13 16:33N 54°33' E 018°30'0 0.0
2017-Feb-13 15:33N 54°33' E 018°30'0 0.0
2017-Feb-13 14:33N 54°33' E 018°30'0 0.0
2017-Feb-13 13:33N 54°33' E 018°30'0 0.0
2017-Feb-13 12:33N 54°33' E 018°30'0 0.0
2017-Feb-13 11:33N 54°33' E 018°30'0 0.0
2017-Feb-13 10:33N 54°33' E 018°30'0 0.0
2017-Feb-13 09:33N 54°33' E 018°30'0 0.0
2017-Feb-13 08:33N 54°33' E 018°30'1 1.0
2017-Feb-13 07:33N 54°32' E 018°32'1312.5
2017-Feb-13 06:34N 54°36' E 018°53'1312.8
2017-Feb-13 05:33N 54°48' E 018°46'1414.4
2017-Feb-13 04:33N 54°58' E 018°29'1514.8
2017-Feb-13 03:34N 55°06' E 018°07'1514.9
2017-Feb-13 02:34N 55°15' E 017°46'9014.9
2017-Feb-12 20:34N 56°05' E 015°34'6 5.7
2017-Feb-12 19:33N 56°10' E 015°38'4 4.0
2017-Feb-12 18:34N 56°06' E 015°35'9215.0
2017-Feb-12 12:26N 55°15' E 017°49'1415.5
2017-Feb-12 11:33N 55°07' E 018°09'1515.7
2017-Feb-12 10:34N 54°58' E 018°31'1817.9
2017-Feb-12 09:34N 54°45' E 018°53'1414.0
2017-Feb-12 08:34N 54°32' E 018°45'9 8.6
2017-Feb-12 07:32N 54°33' E 018°30'0 0.0
2017-Feb-12 06:32N 54°33' E 018°30'6 5.7
2017-Feb-12 05:34N 54°32' E 018°40'1312.9
2017-Feb-12 04:34N 54°42' E 018°55'1514.6
2017-Feb-12 03:34N 54°53' E 018°39'1815.0
2017-Feb-12 02:22N 55°04' E 018°15'1316.0
2017-Feb-12 01:33N 55°12' E 017°56'9315.5
2017-Feb-11 19:33N 56°03' E 015°38'7 7.2
2017-Feb-11 18:32N 56°10' E 015°38'0 0.0
2017-Feb-11 17:33N 56°10' E 015°38'10815.4
2017-Feb-11 10:34N 55°06' E 018°11'1817.8
2017-Feb-11 09:34N 54°55' E 018°36'1918.8
2017-Feb-11 08:34N 54°41' E 018°57'1414.2
2017-Feb-11 07:33N 54°32' E 018°38'  

Dump ship's entire track history